Terminal Aerodrome Forecast
Issued by NWS Sterling, VA

Current Version | Previous Version | Graphics & Text | Print | Product List | Glossary On
Versions: 1 2 3 4 5 6 7 8 9 10 11 12 13 14 15 16 17 18 19 20 21 22 23
051
FTUS41 KLWX 030220 AAG
TAFDCA
TAF AMD
KDCA 030220Z 0302/0324 09008KT 3SM -SHRA OVC050
     FM030900 32005KT 3SM -SHRA OVC040
     FM031200 35007KT P6SM -SHRA OVC008
     FM031600 36005KT P6SM -SHRA OVC015
     FM031800 01005KT P6SM BKN015
     FM032100 04005KT P6SM BKN025=

USA.gov is the U.S. government's official web portal to all federal, state and local government web resources and services.